createdAt,value
2019-05-02T00:00:36.516Z,180.30
2019-05-02T00:03:10.784Z,179.95
2019-05-02T00:05:44.342Z,182.22
2019-05-02T00:08:14.911Z,189.00
2019-05-02T00:10:49.731Z,196.98
2019-05-02T00:13:21.421Z,196.55
2019-05-02T00:15:51.725Z,177.40
2019-05-02T00:18:22.065Z,178.55
2019-05-02T00:20:51.875Z,177.80
2019-05-02T00:26:00.934Z,168.62
2019-05-02T00:28:36.978Z,175.53
2019-05-02T00:31:11.578Z,179.87
2019-05-02T00:33:39.802Z,185.70
2019-05-02T00:36:09.481Z,196.53
2019-05-02T00:38:41.078Z,187.20
2019-05-02T00:41:10.732Z,179.68
2019-05-02T00:43:40.533Z,195.25
2019-05-02T00:48:46.261Z,181.95
2019-05-02T00:51:15.660Z,176.05
2019-05-02T00:53:48.298Z,183.05
2019-05-02T00:56:21.294Z,189.70
2019-05-02T00:59:07.481Z,187.62
2019-05-02T01:01:40.247Z,181.93
2019-05-02T01:04:27.549Z,189.32
2019-05-02T01:06:57.876Z,179.60
2019-05-02T01:09:27.520Z,189.22
2019-05-02T01:14:44.715Z,188.40
2019-05-02T01:17:17.443Z,182.80
2019-05-02T01:19:52.698Z,180.42
2019-05-02T01:22:26.840Z,182.78
2019-05-02T01:24:57.242Z,183.55
2019-05-02T01:27:41.008Z,184.32
2019-05-02T01:33:26.529Z,186.12
2019-05-02T01:36:08.336Z,184.48
2019-05-02T01:38:50.373Z,186.52
2019-05-02T01:41:16.919Z,176.75
2019-05-02T01:43:54.999Z,177.90
2019-05-02T01:46:26.224Z,179.80
2019-05-02T01:51:36.762Z,190.15
2019-05-02T01:54:10.078Z,179.18
2019-05-02T01:56:42.034Z,181.67
2019-05-02T01:59:11.847Z,196.95
2019-05-02T02:04:22.247Z,184.05
2019-05-02T02:06:50.574Z,183.20
2019-05-02T02:09:21.371Z,188.32
2019-05-02T02:11:53.950Z,177.62
2019-05-02T02:14:23.910Z,179.00
2019-05-02T02:16:59.252Z,188.55
2019-05-02T02:19:39.128Z,192.98
2019-05-02T02:22:14.079Z,176.02
2019-05-02T02:25:01.016Z,188.32
2019-05-02T02:27:42.177Z,185.03
2019-05-02T02:30:17.495Z,185.80
2019-05-02T02:32:52.040Z,187.37
2019-05-02T02:35:31.223Z,177.43
2019-05-02T02:38:03.609Z,189.90
2019-05-02T02:40:35.708Z,182.50
2019-05-02T02:43:30.536Z,181.32
2019-05-02T02:46:00.045Z,176.07
2019-05-02T02:48:40.532Z,183.90
2019-05-02T02:51:09.188Z,186.43
2019-05-02T02:53:42.277Z,185.12
2019-05-02T02:56:11.384Z,179.15
2019-05-02T02:58:46.299Z,175.53
2019-05-02T03:01:27.679Z,182.70
2019-05-02T03:03:48.664Z,177.93
2019-05-02T03:06:18.192Z,189.55
2019-05-02T03:08:51.228Z,188.72
2019-05-02T03:11:29.593Z,193.68
2019-05-02T03:14:07.237Z,181.95
2019-05-02T03:16:47.102Z,176.93
2019-05-02T03:19:21.059Z,183.52
2019-05-02T03:22:01.214Z,179.78
2019-05-02T03:24:27.295Z,180.52
2019-05-02T03:26:58.714Z,187.32
2019-05-02T03:29:43.854Z,187.90
2019-05-02T03:32:16.280Z,181.12
2019-05-02T03:34:51.845Z,201.27
2019-05-02T03:37:14.794Z,204.95
2019-05-02T03:39:49.398Z,190.82
2019-05-02T03:42:19.339Z,179.82
2019-05-02T03:44:56.416Z,196.72
2019-05-02T03:47:23.989Z,196.93
2019-05-02T03:49:58.842Z,188.07
2019-05-02T03:52:36.613Z,193.70
2019-05-02T03:55:12.510Z,191.90
2019-05-02T03:57:42.533Z,200.28
2019-05-02T04:00:13.988Z,205.45
2019-05-02T04:02:44.271Z,202.35
2019-05-02T04:07:53.309Z,199.90
2019-05-02T04:10:52.529Z,195.22
2019-05-02T04:13:30.058Z,196.98
2019-05-02T04:15:59.406Z,183.50
2019-05-02T04:18:30.439Z,185.55
2019-05-02T04:21:07.751Z,177.20
2019-05-02T04:23:39.200Z,191.12
2019-05-02T04:26:12.847Z,186.32
2019-05-02T04:28:45.384Z,186.45
2019-05-02T04:31:15.821Z,190.55
2019-05-02T04:33:47.716Z,180.30
2019-05-02T04:36:19.108Z,174.42
2019-05-02T04:38:52.514Z,181.20
2019-05-02T04:41:28.799Z,178.35
2019-05-02T04:43:57.478Z,177.82
2019-05-02T04:46:30.960Z,193.17
2019-05-02T04:48:58.895Z,178.45
2019-05-02T04:51:31.916Z,176.10
2019-05-02T04:54:00.904Z,176.65
2019-05-02T04:56:31.081Z,178.80
2019-05-02T04:59:16.546Z,178.35
2019-05-02T05:01:43.470Z,186.10
2019-05-02T05:04:17.922Z,188.82
2019-05-02T05:07:00.905Z,181.47
2019-05-02T05:09:30.060Z,175.05
2019-05-02T05:12:04.607Z,177.05
2019-05-02T05:14:39.115Z,177.53
2019-05-02T05:17:25.094Z,169.72
2019-05-02T05:20:10.889Z,175.45
2019-05-02T05:22:43.858Z,171.65
2019-05-02T05:25:12.323Z,169.30
2019-05-02T05:27:44.084Z,177.97
2019-05-02T05:30:20.868Z,176.07
2019-05-02T05:32:50.502Z,181.15
2019-05-02T05:35:30.269Z,184.22
2019-05-02T05:37:54.839Z,188.87
2019-05-02T05:40:29.487Z,175.07
2019-05-02T05:43:02.701Z,186.37
2019-05-02T05:45:32.108Z,170.57
2019-05-02T05:48:01.396Z,168.55
2019-05-02T05:50:36.664Z,173.15
2019-05-02T05:53:02.645Z,162.92
2019-05-02T05:56:18.033Z,155.25
2019-05-02T05:58:25.107Z,182.05
2019-05-02T06:01:01.069Z,173.95
2019-05-02T06:03:44.646Z,175.38
2019-05-02T06:06:14.794Z,167.00
2019-05-02T06:08:41.445Z,175.55
2019-05-02T06:11:22.326Z,179.18
2019-05-02T06:13:57.493Z,179.03
2019-05-02T06:16:35.378Z,179.45
2019-05-02T06:19:13.026Z,173.72
2019-05-02T06:21:58.509Z,173.30
2019-05-02T06:24:28.245Z,176.93
2019-05-02T06:29:51.095Z,169.55
2019-05-02T06:32:37.766Z,184.30
2019-05-02T06:34:58.423Z,167.18
2019-05-02T06:37:32.369Z,168.20
2019-05-02T06:40:03.116Z,170.92
2019-05-02T06:42:38.033Z,163.35
2019-05-02T06:45:16.281Z,178.05
2019-05-02T06:47:45.045Z,171.40
2019-05-02T06:50:14.569Z,178.42
2019-05-02T06:52:49.915Z,190.90
2019-05-02T06:55:20.374Z,176.47
2019-05-02T06:57:57.129Z,172.45
2019-05-02T07:00:35.726Z,181.67
2019-05-02T07:02:57.174Z,188.20
2019-05-02T07:05:27.351Z,193.00
2019-05-02T07:07:58.184Z,191.35
2019-05-02T07:10:37.885Z,184.93
2019-05-02T07:13:10.739Z,189.57
2019-05-02T07:15:50.651Z,190.80
2019-05-02T07:18:23.794Z,188.20
2019-05-02T07:20:59.294Z,195.18
2019-05-02T07:23:37.709Z,187.53
2019-05-02T07:26:08.641Z,185.78
2019-05-02T07:28:45.058Z,194.10
2019-05-02T07:31:13.915Z,191.70
2019-05-02T07:33:44.403Z,187.72
2019-05-02T07:36:17.366Z,185.90
2019-05-02T07:39:05.026Z,195.95
2019-05-02T07:41:30.288Z,185.35
2019-05-02T07:44:02.876Z,184.25
2019-05-02T07:46:35.438Z,190.65
2019-05-02T07:49:09.009Z,189.22
2019-05-02T07:51:39.466Z,191.60
2019-05-02T07:54:19.354Z,187.60
2019-05-02T07:56:54.682Z,183.70
2019-05-02T07:59:32.259Z,190.92
2019-05-02T08:02:20.200Z,190.05
2019-05-02T08:04:49.114Z,199.07
2019-05-02T08:07:21.550Z,200.93
2019-05-02T08:10:03.815Z,214.38
2019-05-02T08:12:34.011Z,183.80
2019-05-02T08:15:13.186Z,189.35
2019-05-02T08:17:55.210Z,189.13
2019-05-02T08:20:27.439Z,191.15
2019-05-02T08:22:56.656Z,173.13
2019-05-02T08:25:27.507Z,187.95
2019-05-02T08:27:58.457Z,180.87
2019-05-02T08:30:35.333Z,189.50
2019-05-02T08:33:19.561Z,186.12
2019-05-02T08:35:55.249Z,187.03
2019-05-02T08:38:27.404Z,196.00
2019-05-02T08:40:58.715Z,188.37
2019-05-02T08:43:31.197Z,180.05
2019-05-02T08:46:23.195Z,194.10
2019-05-02T08:51:13.133Z,191.65
2019-05-02T08:53:44.591Z,187.20
2019-05-02T08:59:10.085Z,187.62
2019-05-02T09:01:44.717Z,192.07
2019-05-02T09:04:15.495Z,195.20
2019-05-02T09:06:47.848Z,180.05
2019-05-02T09:09:28.033Z,201.32
2019-05-02T09:14:27.367Z,180.25
2019-05-02T09:17:00.199Z,179.70
2019-05-02T09:19:34.761Z,190.15
2019-05-02T09:22:13.247Z,183.18
2019-05-02T09:24:46.955Z,192.57
2019-05-02T09:27:22.415Z,184.05
2019-05-02T09:29:55.920Z,185.97
2019-05-02T09:32:32.300Z,184.43
2019-05-02T09:35:06.207Z,195.05
2019-05-02T09:37:33.925Z,199.97
2019-05-02T09:40:06.903Z,197.20
2019-05-02T09:42:36.697Z,211.25
2019-05-02T09:45:12.171Z,183.97
2019-05-02T09:47:56.646Z,194.40
2019-05-02T09:50:20.554Z,201.00
2019-05-02T09:52:52.424Z,191.10
2019-05-02T09:55:23.051Z,201.80
2019-05-02T09:57:55.739Z,195.70
2019-05-02T10:00:32.265Z,194.02
2019-05-02T10:03:02.660Z,190.53
2019-05-02T10:05:43.053Z,198.62
2019-05-02T10:08:10.743Z,198.90
2019-05-02T10:10:45.793Z,203.50
2019-05-02T10:13:15.996Z,196.00
2019-05-02T10:15:46.729Z,194.90
2019-05-02T10:18:30.025Z,192.22
2019-05-02T10:20:58.326Z,193.25
2019-05-02T10:23:39.478Z,184.10
2019-05-02T10:26:14.655Z,190.60
2019-05-02T10:28:56.519Z,190.90
2019-05-02T10:31:41.956Z,189.40
2019-05-02T10:34:16.325Z,191.65
2019-05-02T10:36:45.212Z,179.23
2019-05-02T10:39:15.763Z,187.35
2019-05-02T10:41:46.747Z,183.25
2019-05-02T10:44:19.335Z,182.90
2019-05-02T10:46:56.452Z,190.70
2019-05-02T10:49:33.218Z,190.28
2019-05-02T10:52:04.539Z,183.93
2019-05-02T10:54:37.500Z,192.03
2019-05-02T10:57:05.852Z,191.22
2019-05-02T10:59:36.218Z,200.32
2019-05-02T11:02:12.885Z,182.25
2019-05-02T11:04:44.146Z,190.97
2019-05-02T11:07:17.215Z,191.90
2019-05-02T11:09:46.074Z,187.43
2019-05-02T11:12:23.963Z,178.25
2019-05-02T11:14:56.711Z,183.30
2019-05-02T11:17:32.436Z,180.75
2019-05-02T11:20:07.701Z,185.40
2019-05-02T11:22:42.864Z,192.05
2019-05-02T11:25:14.126Z,200.30
2019-05-02T11:27:44.576Z,186.80
2019-05-02T11:30:22.295Z,192.43
2019-05-02T11:32:52.016Z,191.30
2019-05-02T11:35:23.226Z,211.72
2019-05-02T11:37:56.694Z,210.48
2019-05-02T11:40:28.151Z,177.30
2019-05-02T11:43:02.782Z,169.75
2019-05-02T11:45:36.354Z,163.50
2019-05-02T11:48:09.612Z,157.15
2019-05-02T11:50:37.525Z,160.90
2019-05-02T11:53:22.310Z,175.15
2019-05-02T11:55:45.763Z,161.10
2019-05-02T11:58:15.548Z,170.90
2019-05-02T12:03:32.808Z,158.75
2019-05-02T12:06:01.978Z,160.82
2019-05-02T12:08:47.700Z,167.75
2019-05-02T12:11:13.955Z,171.10
2019-05-02T12:13:47.236Z,162.85
2019-05-02T12:16:16.327Z,175.35
2019-05-02T12:18:50.502Z,171.50
2019-05-02T12:21:22.951Z,156.72
2019-05-02T12:23:57.356Z,163.62
2019-05-02T12:26:28.536Z,158.00
2019-05-02T12:29:02.541Z,161.82
2019-05-02T12:31:42.757Z,163.70
2019-05-02T12:34:28.633Z,166.75
2019-05-02T12:36:55.585Z,165.88
2019-05-02T12:39:42.534Z,162.80
2019-05-02T12:42:12.945Z,156.22
2019-05-02T12:44:43.677Z,170.92
2019-05-02T12:47:17.653Z,167.90
2019-05-02T12:49:49.312Z,158.15
2019-05-02T12:52:27.629Z,156.57
2019-05-02T12:54:56.785Z,156.90
2019-05-02T12:57:38.953Z,163.00
2019-05-02T13:00:02.875Z,169.17
2019-05-02T13:02:32.631Z,164.32
2019-05-02T13:05:07.346Z,166.40
2019-05-02T13:07:37.796Z,173.32
2019-05-02T13:10:11.819Z,174.42
2019-05-02T13:12:45.459Z,168.75
2019-05-02T13:15:17.699Z,187.20
2019-05-02T13:17:52.193Z,162.05
2019-05-02T13:20:25.071Z,179.18
2019-05-02T13:23:06.065Z,170.40
2019-05-02T13:25:42.394Z,170.80
2019-05-02T13:28:17.164Z,177.78
2019-05-02T13:31:07.893Z,175.50
2019-05-02T13:33:57.954Z,175.07
2019-05-02T13:36:43.817Z,176.53
2019-05-02T13:39:38.435Z,174.32
2019-05-02T13:42:06.217Z,170.35
2019-05-02T13:44:49.098Z,159.32
2019-05-02T13:47:24.983Z,177.53
2019-05-02T13:50:00.883Z,166.12
2019-05-02T13:52:28.903Z,164.67
2019-05-02T13:55:07.678Z,163.45
2019-05-02T13:57:47.144Z,159.63
2019-05-02T14:00:19.909Z,166.28
2019-05-02T14:02:54.302Z,171.35
2019-05-02T14:05:31.751Z,161.95
2019-05-02T14:08:27.539Z,165.77
2019-05-02T14:11:01.943Z,159.35
2019-05-02T14:13:32.451Z,168.55
2019-05-02T14:16:13.142Z,156.63
2019-05-02T14:18:47.280Z,170.02
2019-05-02T14:21:20.001Z,162.55
2019-05-02T14:23:54.003Z,166.43
2019-05-02T14:26:30.279Z,166.70
2019-05-02T14:29:00.035Z,154.57
2019-05-02T14:31:29.142Z,163.62
2019-05-02T14:34:16.217Z,154.05
2019-05-02T14:36:58.905Z,181.50
2019-05-02T14:39:25.227Z,161.12
2019-05-02T14:44:50.782Z,155.18
2019-05-02T14:46:59.407Z,155.82
2019-05-02T14:49:45.079Z,171.61
2019-05-02T14:52:18.635Z,157.35
2019-05-02T14:54:49.546Z,158.00
2019-05-02T14:57:27.123Z,160.52
2019-05-02T14:59:59.073Z,189.72
2019-05-02T15:02:39.183Z,158.82
2019-05-02T15:05:12.684Z,162.30
2019-05-02T15:07:42.834Z,204.97
2019-05-02T15:10:13.564Z,164.95
2019-05-02T15:12:58.960Z,166.80
2019-05-02T15:15:28.035Z,172.98
2019-05-02T15:17:56.976Z,182.50
2019-05-02T15:20:36.568Z,177.62
2019-05-02T15:23:02.660Z,184.22
2019-05-02T15:25:38.126Z,162.57
2019-05-02T15:28:22.853Z,169.60
2019-05-02T15:31:11.702Z,201.42
2019-05-02T15:33:42.491Z,188.82
2019-05-02T15:36:14.574Z,172.07
2019-05-02T15:38:47.259Z,165.03
2019-05-02T15:41:22.876Z,184.28
2019-05-02T15:43:52.935Z,181.60
2019-05-02T15:46:28.127Z,201.15
2019-05-02T15:49:07.322Z,173.10
2019-05-02T15:51:38.059Z,201.02
2019-05-02T15:54:12.381Z,213.00
2019-05-02T15:57:03.683Z,179.30
2019-05-02T15:59:45.054Z,159.50
2019-05-02T16:02:17.507Z,167.50
2019-05-02T16:04:48.289Z,193.72
2019-05-02T16:07:22.494Z,150.50
2019-05-02T16:10:01.178Z,187.88
2019-05-02T16:12:35.974Z,162.03
2019-05-02T16:15:13.592Z,174.15
2019-05-02T16:17:39.077Z,150.20
2019-05-02T16:20:33.723Z,168.15
2019-05-02T16:23:02.556Z,158.47
2019-05-02T16:25:37.041Z,191.77
2019-05-02T16:28:10.186Z,154.25
2019-05-02T16:30:47.583Z,175.40
2019-05-02T16:33:20.741Z,157.50
2019-05-02T16:35:53.471Z,170.20
2019-05-02T16:38:26.800Z,164.18
2019-05-02T16:40:56.368Z,187.00
2019-05-02T16:43:34.657Z,161.95
2019-05-02T16:46:06.553Z,152.68
2019-05-02T16:48:37.757Z,149.68
2019-05-02T16:51:27.688Z,164.23
2019-05-02T16:53:37.780Z,142.05
2019-05-02T16:56:19.349Z,166.03
2019-05-02T16:58:48.869Z,155.93
2019-05-02T17:01:26.579Z,139.50
2019-05-02T17:03:49.393Z,151.85
2019-05-02T17:06:22.464Z,152.25
2019-05-02T17:08:59.141Z,163.47
2019-05-02T17:11:41.956Z,148.80
2019-05-02T17:14:12.070Z,178.87
2019-05-02T17:16:42.120Z,158.25
2019-05-02T17:19:12.310Z,176.47
2019-05-02T17:21:53.952Z,153.57
2019-05-02T17:24:22.672Z,161.57
2019-05-02T17:26:53.666Z,149.75
2019-05-02T17:29:28.911Z,155.22
2019-05-02T17:31:59.352Z,168.02
2019-05-02T17:34:30.784Z,152.95
2019-05-02T17:37:06.223Z,147.55
2019-05-02T17:39:31.105Z,156.85
2019-05-02T17:42:06.379Z,170.62
2019-05-02T17:44:35.500Z,169.47
2019-05-02T17:47:05.025Z,165.77
2019-05-02T17:49:42.670Z,165.19
2019-05-02T17:52:19.774Z,144.15
2019-05-02T17:54:47.019Z,186.37
2019-05-02T17:57:16.170Z,161.60
2019-05-02T17:59:45.609Z,190.77
2019-05-02T18:02:16.021Z,142.50
2019-05-02T18:04:46.554Z,153.80
2019-05-02T18:07:18.122Z,146.05
2019-05-02T18:09:46.964Z,166.57
2019-05-02T18:12:16.392Z,154.03
2019-05-02T18:14:45.823Z,178.53
2019-05-02T18:17:14.932Z,146.95
2019-05-02T18:19:44.494Z,182.53
2019-05-02T18:22:26.234Z,181.93
2019-05-02T18:24:57.862Z,165.95
2019-05-02T18:27:26.969Z,142.95
2019-05-02T18:29:56.083Z,152.10
2019-05-02T18:32:26.324Z,165.07
2019-05-02T18:34:56.829Z,160.93
2019-05-02T18:37:27.059Z,145.00
2019-05-02T18:39:56.159Z,143.32
2019-05-02T18:42:25.715Z,149.97
2019-05-02T18:44:58.256Z,178.18
2019-05-02T18:47:29.809Z,145.72
2019-05-02T18:50:06.236Z,154.25
2019-05-02T18:52:42.913Z,150.50
2019-05-02T18:55:09.868Z,156.10
2019-05-02T18:57:38.991Z,148.20
2019-05-02T19:00:12.216Z,166.47
2019-05-02T19:02:42.448Z,149.68
2019-05-02T19:05:19.269Z,155.22
2019-05-02T19:07:47.375Z,150.00
2019-05-02T19:10:15.571Z,184.63
2019-05-02T19:12:44.712Z,144.13
2019-05-02T19:15:15.733Z,174.00
2019-05-02T19:17:44.835Z,165.50
2019-05-02T19:20:28.953Z,176.07
2019-05-02T19:22:58.076Z,161.77
2019-05-02T19:25:27.196Z,151.53
2019-05-02T19:27:59.358Z,143.35
2019-05-02T19:30:32.972Z,149.15
2019-05-02T19:33:07.652Z,177.45
2019-05-02T19:35:37.676Z,164.62
2019-05-02T19:38:17.121Z,148.32
2019-05-02T19:40:44.060Z,155.55
2019-05-02T19:43:14.798Z,144.17
2019-05-02T19:45:45.805Z,143.65
2019-05-02T19:48:14.933Z,145.70
2019-05-02T19:50:44.237Z,146.70
2019-05-02T19:53:18.026Z,144.07
2019-05-02T19:55:44.234Z,141.90
2019-05-02T19:58:13.335Z,154.20
2019-05-02T20:00:46.249Z,146.82
2019-05-02T20:03:21.395Z,142.40
2019-05-02T20:05:44.348Z,147.10
2019-05-02T20:08:14.846Z,156.82
2019-05-02T20:10:44.265Z,148.22
2019-05-02T20:13:13.376Z,141.77
2019-05-02T20:15:44.153Z,149.75
2019-05-02T20:18:13.275Z,147.87
2019-05-02T20:21:05.017Z,146.85
2019-05-02T20:23:35.654Z,145.07
2019-05-02T20:26:09.410Z,145.25
2019-05-02T20:28:36.388Z,146.18
2019-05-02T20:31:05.587Z,146.15
2019-05-02T20:33:34.704Z,148.57
2019-05-02T20:36:04.068Z,151.68
2019-05-02T20:38:33.433Z,150.12
2019-05-02T20:41:02.991Z,148.07
2019-05-02T20:43:32.435Z,148.00
2019-05-02T20:46:02.602Z,146.82
2019-05-02T20:48:32.337Z,155.70
2019-05-02T20:51:02.662Z,147.75
2019-05-02T20:53:34.226Z,142.75
2019-05-02T20:56:03.334Z,147.55
2019-05-02T20:58:32.694Z,142.85
2019-05-02T21:01:07.712Z,148.13
2019-05-02T21:03:32.700Z,143.37
2019-05-02T21:06:06.330Z,147.98
2019-05-02T21:08:41.908Z,143.65
2019-05-02T21:11:20.148Z,163.50
2019-05-02T21:13:49.303Z,149.15
2019-05-02T21:16:28.466Z,169.80
2019-05-02T21:19:01.898Z,178.18
2019-05-02T21:21:32.469Z,146.37
2019-05-02T21:24:24.626Z,189.32
2019-05-02T21:26:45.160Z,148.60
2019-05-02T21:29:14.396Z,143.17
2019-05-02T21:31:44.096Z,161.60
2019-05-02T21:34:13.355Z,139.28
2019-05-02T21:36:44.830Z,143.20
2019-05-02T21:39:14.063Z,142.77
2019-05-02T21:41:43.324Z,136.57
2019-05-02T21:44:13.116Z,142.03
2019-05-02T21:46:42.608Z,139.07
2019-05-02T21:49:15.039Z,155.87
2019-05-02T21:51:53.183Z,144.40
2019-05-02T21:54:38.381Z,173.47
2019-05-02T21:57:13.287Z,145.38
2019-05-02T21:59:42.620Z,139.68
2019-05-02T22:02:12.592Z,148.22
2019-05-02T22:04:54.398Z,148.57
2019-05-02T22:07:19.252Z,136.20
2019-05-02T22:09:48.414Z,148.25
2019-05-02T22:12:17.582Z,148.80
2019-05-02T22:14:52.761Z,141.25
2019-05-02T22:17:21.572Z,137.70
2019-05-02T22:22:19.193Z,138.55
2019-05-02T22:24:48.387Z,142.25
2019-05-02T22:27:29.616Z,161.12
2019-05-02T22:29:58.755Z,142.57
2019-05-02T22:32:27.924Z,134.30
2019-05-02T22:34:57.085Z,141.53
2019-05-02T22:37:26.410Z,137.50
2019-05-02T22:39:57.208Z,134.80
2019-05-02T22:42:26.371Z,139.50
2019-05-02T22:44:55.572Z,137.47
2019-05-02T22:47:24.992Z,140.95
2019-05-02T22:49:54.149Z,136.43
2019-05-02T22:52:23.347Z,141.60
2019-05-02T22:54:52.527Z,143.57
2019-05-02T22:57:22.547Z,139.15
2019-05-02T22:59:51.876Z,136.47
2019-05-02T23:02:22.001Z,141.85
2019-05-02T23:04:52.629Z,134.18
2019-05-02T23:07:22.716Z,136.82
2019-05-02T23:12:24.806Z,134.85
2019-05-02T23:14:53.005Z,140.03
2019-05-02T23:17:23.182Z,135.90
2019-05-02T23:19:52.848Z,135.35
2019-05-02T23:22:22.178Z,141.68
2019-05-02T23:24:52.980Z,134.75
2019-05-02T23:27:23.781Z,140.37
2019-05-02T23:29:53.246Z,137.37
2019-05-02T23:32:23.834Z,134.87
2019-05-02T23:34:53.057Z,138.20
2019-05-02T23:37:22.290Z,133.75
2019-05-02T23:39:52.275Z,133.20
2019-05-02T23:42:21.935Z,134.47
2019-05-02T23:44:51.890Z,136.70
2019-05-02T23:47:22.434Z,139.10
2019-05-02T23:49:52.162Z,138.10
2019-05-02T23:52:22.450Z,132.03
2019-05-02T23:54:52.558Z,141.20
2019-05-02T23:57:22.986Z,132.03
2019-05-02T23:59:52.292Z,135.28
